sensor_id;sensor_type;location;lat;lon;timestamp;P1;durP1;ratioP1;P2;durP2;ratioP2
14554;SDS011;7364;50.870;4.722;2022-11-20T00:02:16;27.10;;;20.47;;
14554;SDS011;7364;50.870;4.722;2022-11-20T00:04:43;30.20;;;22.47;;
14554;SDS011;7364;50.870;4.722;2022-11-20T00:07:10;27.13;;;22.20;;
14554;SDS011;7364;50.870;4.722;2022-11-20T00:09:38;26.07;;;21.30;;
14554;SDS011;7364;50.870;4.722;2022-11-20T00:12:05;29.03;;;21.43;;
14554;SDS011;7364;50.870;4.722;2022-11-20T00:14:36;28.60;;;22.43;;
14554;SDS011;7364;50.870;4.722;2022-11-20T00:17:03;28.40;;;21.57;;
14554;SDS011;7364;50.870;4.722;2022-11-20T00:19:31;29.60;;;21.23;;
14554;SDS011;7364;50.870;4.722;2022-11-20T00:21:58;25.90;;;19.93;;
14554;SDS011;7364;50.870;4.722;2022-11-20T00:24:25;26.93;;;21.47;;
14554;SDS011;7364;50.870;4.722;2022-11-20T00:26:52;28.77;;;21.60;;
14554;SDS011;7364;50.870;4.722;2022-11-20T00:29:19;27.00;;;20.77;;
14554;SDS011;7364;50.870;4.722;2022-11-20T00:31:51;27.87;;;20.50;;
14554;SDS011;7364;50.870;4.722;2022-11-20T00:34:18;29.80;;;21.60;;
14554;SDS011;7364;50.870;4.722;2022-11-20T00:36:45;28.77;;;21.83;;
14554;SDS011;7364;50.870;4.722;2022-11-20T00:39:13;27.23;;;21.67;;
14554;SDS011;7364;50.870;4.722;2022-11-20T00:41:40;31.20;;;20.43;;
14554;SDS011;7364;50.870;4.722;2022-11-20T00:44:07;27.57;;;20.60;;
14554;SDS011;7364;50.870;4.722;2022-11-20T00:46:35;27.40;;;22.00;;
14554;SDS011;7364;50.870;4.722;2022-11-20T00:49:04;24.73;;;20.10;;
14554;SDS011;7364;50.870;4.722;2022-11-20T00:51:31;30.00;;;21.43;;
14554;SDS011;7364;50.870;4.722;2022-11-20T00:53:58;26.73;;;20.93;;
14554;SDS011;7364;50.870;4.722;2022-11-20T00:56:27;28.43;;;21.70;;
14554;SDS011;7364;50.870;4.722;2022-11-20T00:58:58;30.53;;;22.03;;
14554;SDS011;7364;50.870;4.722;2022-11-20T01:01:27;30.97;;;22.00;;
14554;SDS011;7364;50.870;4.722;2022-11-20T01:03:56;29.13;;;21.97;;
14554;SDS011;7364;50.870;4.722;2022-11-20T01:06:27;28.40;;;21.40;;
14554;SDS011;7364;50.870;4.722;2022-11-20T01:08:56;29.30;;;22.03;;
14554;SDS011;7364;50.870;4.722;2022-11-20T01:11:25;31.57;;;22.43;;
14554;SDS011;7364;50.870;4.722;2022-11-20T01:13:54;34.93;;;25.57;;
14554;SDS011;7364;50.870;4.722;2022-11-20T01:16:22;38.27;;;26.00;;
14554;SDS011;7364;50.870;4.722;2022-11-20T01:18:55;38.93;;;25.50;;
14554;SDS011;7364;50.870;4.722;2022-11-20T01:21:26;32.20;;;24.77;;
14554;SDS011;7364;50.870;4.722;2022-11-20T01:23:55;40.93;;;26.43;;
14554;SDS011;7364;50.870;4.722;2022-11-20T01:26:23;33.77;;;24.33;;
14554;SDS011;7364;50.870;4.722;2022-11-20T01:28:52;35.93;;;25.03;;
14554;SDS011;7364;50.870;4.722;2022-11-20T01:31:22;31.43;;;25.03;;
14554;SDS011;7364;50.870;4.722;2022-11-20T01:33:53;36.50;;;26.10;;
14554;SDS011;7364;50.870;4.722;2022-11-20T01:36:23;40.27;;;27.17;;
14554;SDS011;7364;50.870;4.722;2022-11-20T01:38:54;38.70;;;25.43;;
14554;SDS011;7364;50.870;4.722;2022-11-20T01:41:24;37.10;;;24.67;;
14554;SDS011;7364;50.870;4.722;2022-11-20T01:44:10;34.47;;;24.30;;
14554;SDS011;7364;50.870;4.722;2022-11-20T01:46:42;38.13;;;25.23;;
14554;SDS011;7364;50.870;4.722;2022-11-20T01:49:19;34.43;;;23.43;;
14554;SDS011;7364;50.870;4.722;2022-11-20T01:51:52;30.23;;;23.70;;
14554;SDS011;7364;50.870;4.722;2022-11-20T01:54:28;34.67;;;24.27;;
14554;SDS011;7364;50.870;4.722;2022-11-20T01:56:59;36.20;;;24.87;;
14554;SDS011;7364;50.870;4.722;2022-11-20T01:59:27;32.20;;;24.30;;
14554;SDS011;7364;50.870;4.722;2022-11-20T02:01:56;45.07;;;24.73;;
14554;SDS011;7364;50.870;4.722;2022-11-20T02:04:23;35.60;;;25.50;;
14554;SDS011;7364;50.870;4.722;2022-11-20T02:06:53;34.47;;;24.10;;
14554;SDS011;7364;50.870;4.722;2022-11-20T02:09:26;32.77;;;23.93;;
14554;SDS011;7364;50.870;4.722;2022-11-20T02:11:54;35.77;;;23.83;;
14554;SDS011;7364;50.870;4.722;2022-11-20T02:14:22;35.53;;;24.43;;
14554;SDS011;7364;50.870;4.722;2022-11-20T02:16:49;31.43;;;22.57;;
14554;SDS011;7364;50.870;4.722;2022-11-20T02:19:20;33.67;;;24.07;;
14554;SDS011;7364;50.870;4.722;2022-11-20T02:21:53;36.00;;;22.70;;
14554;SDS011;7364;50.870;4.722;2022-11-20T02:24:28;28.33;;;22.90;;
14554;SDS011;7364;50.870;4.722;2022-11-20T02:26:57;33.73;;;24.97;;
14554;SDS011;7364;50.870;4.722;2022-11-20T02:29:31;33.93;;;24.60;;
14554;SDS011;7364;50.870;4.722;2022-11-20T02:32:02;33.90;;;24.83;;
14554;SDS011;7364;50.870;4.722;2022-11-20T02:34:29;34.40;;;24.03;;
14554;SDS011;7364;50.870;4.722;2022-11-20T02:36:56;38.17;;;26.27;;
14554;SDS011;7364;50.870;4.722;2022-11-20T02:39:25;39.37;;;26.23;;
14554;SDS011;7364;50.870;4.722;2022-11-20T02:41:55;38.90;;;26.70;;
14554;SDS011;7364;50.870;4.722;2022-11-20T02:44:23;39.73;;;26.20;;
14554;SDS011;7364;50.870;4.722;2022-11-20T02:46:52;37.17;;;26.67;;
14554;SDS011;7364;50.870;4.722;2022-11-20T02:49:24;34.17;;;25.73;;
14554;SDS011;7364;50.870;4.722;2022-11-20T02:51:52;37.83;;;26.13;;
14554;SDS011;7364;50.870;4.722;2022-11-20T02:54:19;34.73;;;25.87;;
14554;SDS011;7364;50.870;4.722;2022-11-20T02:56:47;35.03;;;27.13;;
14554;SDS011;7364;50.870;4.722;2022-11-20T02:59:15;40.13;;;26.17;;
14554;SDS011;7364;50.870;4.722;2022-11-20T03:01:42;36.67;;;28.27;;
14554;SDS011;7364;50.870;4.722;2022-11-20T03:04:09;38.77;;;26.67;;
14554;SDS011;7364;50.870;4.722;2022-11-20T03:06:36;36.10;;;26.93;;
14554;SDS011;7364;50.870;4.722;2022-11-20T03:09:03;36.13;;;27.77;;
14554;SDS011;7364;50.870;4.722;2022-11-20T03:11:31;42.50;;;26.47;;
14554;SDS011;7364;50.870;4.722;2022-11-20T03:14:02;42.80;;;29.40;;
14554;SDS011;7364;50.870;4.722;2022-11-20T03:16:30;37.70;;;28.37;;
14554;SDS011;7364;50.870;4.722;2022-11-20T03:18:58;38.80;;;28.73;;
14554;SDS011;7364;50.870;4.722;2022-11-20T03:21:25;40.60;;;27.57;;
14554;SDS011;7364;50.870;4.722;2022-11-20T03:23:52;43.53;;;30.07;;
14554;SDS011;7364;50.870;4.722;2022-11-20T03:26:21;43.60;;;30.07;;
14554;SDS011;7364;50.870;4.722;2022-11-20T03:28:50;42.77;;;28.80;;
14554;SDS011;7364;50.870;4.722;2022-11-20T03:31:20;48.70;;;32.13;;
14554;SDS011;7364;50.870;4.722;2022-11-20T03:33:49;42.80;;;30.73;;
14554;SDS011;7364;50.870;4.722;2022-11-20T03:36:17;47.73;;;31.23;;
14554;SDS011;7364;50.870;4.722;2022-11-20T03:38:45;49.20;;;29.73;;
14554;SDS011;7364;50.870;4.722;2022-11-20T03:41:13;42.53;;;28.97;;
14554;SDS011;7364;50.870;4.722;2022-11-20T03:43:41;42.73;;;28.63;;
14554;SDS011;7364;50.870;4.722;2022-11-20T03:46:14;44.53;;;28.70;;
14554;SDS011;7364;50.870;4.722;2022-11-20T03:48:42;49.73;;;30.23;;
14554;SDS011;7364;50.870;4.722;2022-11-20T03:51:10;42.13;;;27.27;;
14554;SDS011;7364;50.870;4.722;2022-11-20T03:53:39;39.83;;;28.73;;
14554;SDS011;7364;50.870;4.722;2022-11-20T03:56:07;37.10;;;26.80;;
14554;SDS011;7364;50.870;4.722;2022-11-20T03:58:34;46.63;;;28.00;;
14554;SDS011;7364;50.870;4.722;2022-11-20T04:01:08;39.60;;;26.33;;
14554;SDS011;7364;50.870;4.722;2022-11-20T04:03:37;39.97;;;27.73;;
14554;SDS011;7364;50.870;4.722;2022-11-20T04:06:09;48.70;;;29.57;;
14554;SDS011;7364;50.870;4.722;2022-11-20T04:08:39;41.10;;;26.87;;
14554;SDS011;7364;50.870;4.722;2022-11-20T04:11:10;42.27;;;28.47;;
14554;SDS011;7364;50.870;4.722;2022-11-20T04:13:38;41.53;;;28.87;;
14554;SDS011;7364;50.870;4.722;2022-11-20T04:16:07;40.20;;;27.63;;
14554;SDS011;7364;50.870;4.722;2022-11-20T04:18:35;43.57;;;27.90;;
14554;SDS011;7364;50.870;4.722;2022-11-20T04:21:03;44.77;;;27.77;;
14554;SDS011;7364;50.870;4.722;2022-11-20T04:23:34;37.53;;;27.47;;
14554;SDS011;7364;50.870;4.722;2022-11-20T04:26:02;45.37;;;28.87;;
14554;SDS011;7364;50.870;4.722;2022-11-20T04:28:30;39.53;;;26.50;;
14554;SDS011;7364;50.870;4.722;2022-11-20T04:31:04;41.10;;;27.17;;
14554;SDS011;7364;50.870;4.722;2022-11-20T04:33:34;33.63;;;25.43;;
14554;SDS011;7364;50.870;4.722;2022-11-20T04:36:03;41.60;;;26.93;;
14554;SDS011;7364;50.870;4.722;2022-11-20T04:38:31;44.97;;;27.63;;
14554;SDS011;7364;50.870;4.722;2022-11-20T04:41:01;41.17;;;27.40;;
14554;SDS011;7364;50.870;4.722;2022-11-20T04:43:30;37.70;;;27.57;;
14554;SDS011;7364;50.870;4.722;2022-11-20T04:45:58;36.30;;;25.10;;
14554;SDS011;7364;50.870;4.722;2022-11-20T04:48:27;35.77;;;25.77;;
14554;SDS011;7364;50.870;4.722;2022-11-20T04:50:55;35.03;;;24.20;;
14554;SDS011;7364;50.870;4.722;2022-11-20T04:53:22;35.43;;;25.10;;
14554;SDS011;7364;50.870;4.722;2022-11-20T04:55:51;38.30;;;26.57;;
14554;SDS011;7364;50.870;4.722;2022-11-20T04:58:29;34.57;;;27.03;;
14554;SDS011;7364;50.870;4.722;2022-11-20T05:01:00;41.00;;;27.93;;
14554;SDS011;7364;50.870;4.722;2022-11-20T05:03:29;37.50;;;27.47;;
14554;SDS011;7364;50.870;4.722;2022-11-20T05:05:57;42.63;;;27.57;;
14554;SDS011;7364;50.870;4.722;2022-11-20T05:08:27;39.47;;;27.90;;
14554;SDS011;7364;50.870;4.722;2022-11-20T05:11:00;44.63;;;29.47;;
14554;SDS011;7364;50.870;4.722;2022-11-20T05:13:28;37.90;;;27.57;;
14554;SDS011;7364;50.870;4.722;2022-11-20T05:16:00;43.53;;;27.53;;
14554;SDS011;7364;50.870;4.722;2022-11-20T05:18:28;36.07;;;27.57;;
14554;SDS011;7364;50.870;4.722;2022-11-20T05:20:56;41.43;;;27.63;;
14554;SDS011;7364;50.870;4.722;2022-11-20T05:23:23;41.77;;;28.87;;
14554;SDS011;7364;50.870;4.722;2022-11-20T05:25:51;39.13;;;27.80;;
14554;SDS011;7364;50.870;4.722;2022-11-20T05:28:21;36.33;;;26.40;;
14554;SDS011;7364;50.870;4.722;2022-11-20T05:30:49;38.60;;;25.87;;
14554;SDS011;7364;50.870;4.722;2022-11-20T05:33:17;47.63;;;28.27;;
14554;SDS011;7364;50.870;4.722;2022-11-20T05:35:45;41.07;;;28.10;;
14554;SDS011;7364;50.870;4.722;2022-11-20T05:38:13;34.90;;;26.00;;
14554;SDS011;7364;50.870;4.722;2022-11-20T05:40:40;36.33;;;25.37;;
14554;SDS011;7364;50.870;4.722;2022-11-20T05:43:07;35.13;;;25.63;;
14554;SDS011;7364;50.870;4.722;2022-11-20T05:45:36;40.33;;;25.87;;
14554;SDS011;7364;50.870;4.722;2022-11-20T05:48:03;38.17;;;26.93;;
14554;SDS011;7364;50.870;4.722;2022-11-20T05:50:31;39.40;;;26.60;;
14554;SDS011;7364;50.870;4.722;2022-11-20T05:52:59;35.43;;;26.73;;
14554;SDS011;7364;50.870;4.722;2022-11-20T05:55:27;31.57;;;24.97;;
14554;SDS011;7364;50.870;4.722;2022-11-20T05:57:54;42.37;;;28.40;;
14554;SDS011;7364;50.870;4.722;2022-11-20T06:00:24;43.57;;;29.03;;
14554;SDS011;7364;50.870;4.722;2022-11-20T06:02:56;38.67;;;26.07;;
14554;SDS011;7364;50.870;4.722;2022-11-20T06:05:26;32.87;;;24.83;;
14554;SDS011;7364;50.870;4.722;2022-11-20T06:07:53;33.80;;;24.77;;
14554;SDS011;7364;50.870;4.722;2022-11-20T06:10:20;38.67;;;26.10;;
14554;SDS011;7364;50.870;4.722;2022-11-20T06:12:48;34.07;;;23.60;;
14554;SDS011;7364;50.870;4.722;2022-11-20T06:15:15;34.77;;;24.03;;
14554;SDS011;7364;50.870;4.722;2022-11-20T06:17:42;33.83;;;23.57;;
14554;SDS011;7364;50.870;4.722;2022-11-20T06:20:11;33.23;;;23.17;;
14554;SDS011;7364;50.870;4.722;2022-11-20T06:22:38;38.13;;;24.87;;
14554;SDS011;7364;50.870;4.722;2022-11-20T06:25:08;37.87;;;25.10;;
14554;SDS011;7364;50.870;4.722;2022-11-20T06:27:37;38.60;;;24.10;;
14554;SDS011;7364;50.870;4.722;2022-11-20T06:30:05;34.27;;;24.77;;
14554;SDS011;7364;50.870;4.722;2022-11-20T06:32:39;43.90;;;28.43;;
14554;SDS011;7364;50.870;4.722;2022-11-20T06:35:11;38.33;;;26.10;;
14554;SDS011;7364;50.870;4.722;2022-11-20T06:37:42;48.73;;;29.47;;
14554;SDS011;7364;50.870;4.722;2022-11-20T06:40:10;45.33;;;28.60;;
14554;SDS011;7364;50.870;4.722;2022-11-20T06:42:37;41.93;;;29.33;;
14554;SDS011;7364;50.870;4.722;2022-11-20T06:45:06;44.80;;;28.47;;
14554;SDS011;7364;50.870;4.722;2022-11-20T06:47:36;44.13;;;28.17;;
14554;SDS011;7364;50.870;4.722;2022-11-20T06:50:03;44.17;;;28.27;;
14554;SDS011;7364;50.870;4.722;2022-11-20T06:52:32;49.33;;;29.33;;
14554;SDS011;7364;50.870;4.722;2022-11-20T06:55:00;43.37;;;27.47;;
14554;SDS011;7364;50.870;4.722;2022-11-20T06:57:27;48.40;;;28.37;;
14554;SDS011;7364;50.870;4.722;2022-11-20T06:59:54;52.20;;;30.77;;
14554;SDS011;7364;50.870;4.722;2022-11-20T07:02:29;52.63;;;29.27;;
14554;SDS011;7364;50.870;4.722;2022-11-20T07:05:28;70.23;;;31.53;;
14554;SDS011;7364;50.870;4.722;2022-11-20T07:08:00;58.70;;;31.23;;
14554;SDS011;7364;50.870;4.722;2022-11-20T07:10:28;57.83;;;31.53;;
14554;SDS011;7364;50.870;4.722;2022-11-20T07:12:55;59.80;;;30.23;;
14554;SDS011;7364;50.870;4.722;2022-11-20T07:15:25;58.77;;;32.73;;
14554;SDS011;7364;50.870;4.722;2022-11-20T07:17:53;55.60;;;32.07;;
14554;SDS011;7364;50.870;4.722;2022-11-20T07:20:21;50.50;;;29.23;;
14554;SDS011;7364;50.870;4.722;2022-11-20T07:22:52;57.10;;;32.97;;
14554;SDS011;7364;50.870;4.722;2022-11-20T07:25:22;58.20;;;32.93;;
14554;SDS011;7364;50.870;4.722;2022-11-20T07:27:50;61.10;;;31.83;;
14554;SDS011;7364;50.870;4.722;2022-11-20T07:30:18;60.63;;;30.80;;
14554;SDS011;7364;50.870;4.722;2022-11-20T07:32:46;59.67;;;33.43;;
14554;SDS011;7364;50.870;4.722;2022-11-20T07:35:13;50.43;;;32.17;;
14554;SDS011;7364;50.870;4.722;2022-11-20T07:37:40;63.17;;;35.47;;
14554;SDS011;7364;50.870;4.722;2022-11-20T07:40:12;52.43;;;30.73;;
14554;SDS011;7364;50.870;4.722;2022-11-20T07:42:48;58.43;;;33.50;;
14554;SDS011;7364;50.870;4.722;2022-11-20T07:45:17;54.33;;;32.37;;
14554;SDS011;7364;50.870;4.722;2022-11-20T07:47:45;57.80;;;32.97;;
14554;SDS011;7364;50.870;4.722;2022-11-20T07:50:14;60.83;;;34.50;;
14554;SDS011;7364;50.870;4.722;2022-11-20T07:52:48;60.40;;;33.10;;
14554;SDS011;7364;50.870;4.722;2022-11-20T07:55:16;58.27;;;35.00;;
14554;SDS011;7364;50.870;4.722;2022-11-20T07:57:43;58.17;;;35.17;;
14554;SDS011;7364;50.870;4.722;2022-11-20T08:00:13;59.83;;;34.17;;
14554;SDS011;7364;50.870;4.722;2022-11-20T08:02:41;62.60;;;34.70;;
14554;SDS011;7364;50.870;4.722;2022-11-20T08:05:09;55.53;;;34.20;;
14554;SDS011;7364;50.870;4.722;2022-11-20T08:07:37;58.43;;;34.17;;
14554;SDS011;7364;50.870;4.722;2022-11-20T08:10:05;66.43;;;35.53;;
14554;SDS011;7364;50.870;4.722;2022-11-20T08:12:33;58.20;;;34.03;;
14554;SDS011;7364;50.870;4.722;2022-11-20T08:15:19;55.23;;;33.00;;
14554;SDS011;7364;50.870;4.722;2022-11-20T08:17:46;55.37;;;34.37;;
14554;SDS011;7364;50.870;4.722;2022-11-20T08:20:13;56.50;;;31.97;;
14554;SDS011;7364;50.870;4.722;2022-11-20T08:22:40;55.13;;;33.97;;
14554;SDS011;7364;50.870;4.722;2022-11-20T08:25:07;54.87;;;34.43;;
14554;SDS011;7364;50.870;4.722;2022-11-20T08:27:35;59.87;;;35.27;;
14554;SDS011;7364;50.870;4.722;2022-11-20T08:30:02;50.40;;;32.40;;
14554;SDS011;7364;50.870;4.722;2022-11-20T08:32:34;55.20;;;32.57;;
14554;SDS011;7364;50.870;4.722;2022-11-20T08:35:02;56.87;;;33.87;;
14554;SDS011;7364;50.870;4.722;2022-11-20T08:37:30;56.53;;;33.73;;
14554;SDS011;7364;50.870;4.722;2022-11-20T08:40:01;60.07;;;33.50;;
14554;SDS011;7364;50.870;4.722;2022-11-20T08:42:28;54.07;;;34.07;;
14554;SDS011;7364;50.870;4.722;2022-11-20T08:44:55;56.47;;;33.47;;
14554;SDS011;7364;50.870;4.722;2022-11-20T08:47:22;58.60;;;33.93;;
14554;SDS011;7364;50.870;4.722;2022-11-20T08:49:51;53.17;;;33.27;;
14554;SDS011;7364;50.870;4.722;2022-11-20T08:52:18;57.23;;;34.07;;
14554;SDS011;7364;50.870;4.722;2022-11-20T08:54:45;58.50;;;33.43;;
14554;SDS011;7364;50.870;4.722;2022-11-20T08:57:12;56.47;;;34.70;;
14554;SDS011;7364;50.870;4.722;2022-11-20T08:59:39;61.87;;;36.20;;
14554;SDS011;7364;50.870;4.722;2022-11-20T09:02:07;58.40;;;37.17;;
14554;SDS011;7364;50.870;4.722;2022-11-20T09:04:37;58.70;;;33.87;;
14554;SDS011;7364;50.870;4.722;2022-11-20T09:07:06;57.97;;;32.40;;
14554;SDS011;7364;50.870;4.722;2022-11-20T09:09:36;58.00;;;33.60;;
14554;SDS011;7364;50.870;4.722;2022-11-20T09:12:03;58.40;;;32.83;;
14554;SDS011;7364;50.870;4.722;2022-11-20T09:14:31;52.87;;;30.17;;
14554;SDS011;7364;50.870;4.722;2022-11-20T09:16:59;54.00;;;33.80;;
14554;SDS011;7364;50.870;4.722;2022-11-20T09:19:26;55.50;;;32.50;;
14554;SDS011;7364;50.870;4.722;2022-11-20T09:21:54;59.07;;;33.83;;
14554;SDS011;7364;50.870;4.722;2022-11-20T09:24:22;55.77;;;32.93;;
14554;SDS011;7364;50.870;4.722;2022-11-20T09:26:49;51.30;;;31.20;;
14554;SDS011;7364;50.870;4.722;2022-11-20T09:29:17;58.83;;;33.27;;
14554;SDS011;7364;50.870;4.722;2022-11-20T09:31:44;46.13;;;31.47;;
14554;SDS011;7364;50.870;4.722;2022-11-20T09:34:12;54.57;;;33.20;;
14554;SDS011;7364;50.870;4.722;2022-11-20T09:36:39;55.20;;;31.67;;
14554;SDS011;7364;50.870;4.722;2022-11-20T09:39:06;46.63;;;30.70;;
14554;SDS011;7364;50.870;4.722;2022-11-20T09:41:44;50.20;;;29.17;;
14554;SDS011;7364;50.870;4.722;2022-11-20T09:44:39;47.47;;;29.13;;
14554;SDS011;7364;50.870;4.722;2022-11-20T09:47:16;48.07;;;29.27;;
14554;SDS011;7364;50.870;4.722;2022-11-20T09:49:58;47.60;;;26.13;;
14554;SDS011;7364;50.870;4.722;2022-11-20T09:52:37;42.87;;;26.23;;
14554;SDS011;7364;50.870;4.722;2022-11-20T09:55:12;42.30;;;27.10;;
14554;SDS011;7364;50.870;4.722;2022-11-20T09:57:43;45.47;;;25.87;;
14554;SDS011;7364;50.870;4.722;2022-11-20T10:00:13;40.03;;;24.77;;
14554;SDS011;7364;50.870;4.722;2022-11-20T10:02:43;46.50;;;26.40;;
14554;SDS011;7364;50.870;4.722;2022-11-20T10:05:18;43.00;;;23.70;;
14554;SDS011;7364;50.870;4.722;2022-11-20T10:07:51;39.90;;;23.73;;
14554;SDS011;7364;50.870;4.722;2022-11-20T10:10:25;40.13;;;24.67;;
14554;SDS011;7364;50.870;4.722;2022-11-20T10:13:02;38.30;;;25.07;;
14554;SDS011;7364;50.870;4.722;2022-11-20T10:15:45;34.57;;;23.30;;
14554;SDS011;7364;50.870;4.722;2022-11-20T10:18:23;35.27;;;23.87;;
14554;SDS011;7364;50.870;4.722;2022-11-20T10:21:04;41.87;;;23.70;;
14554;SDS011;7364;50.870;4.722;2022-11-20T10:23:44;38.90;;;21.60;;
14554;SDS011;7364;50.870;4.722;2022-11-20T10:26:28;36.10;;;22.53;;
14554;SDS011;7364;50.870;4.722;2022-11-20T10:29:07;33.93;;;20.53;;
14554;SDS011;7364;50.870;4.722;2022-11-20T10:31:39;36.13;;;22.00;;
14554;SDS011;7364;50.870;4.722;2022-11-20T10:34:12;31.90;;;20.40;;
14554;SDS011;7364;50.870;4.722;2022-11-20T10:36:46;31.10;;;19.53;;
14554;SDS011;7364;50.870;4.722;2022-11-20T10:39:20;31.30;;;20.73;;
14554;SDS011;7364;50.870;4.722;2022-11-20T10:41:53;25.33;;;18.67;;
14554;SDS011;7364;50.870;4.722;2022-11-20T10:44:24;33.23;;;19.60;;
14554;SDS011;7364;50.870;4.722;2022-11-20T10:47:12;29.73;;;18.37;;
14554;SDS011;7364;50.870;4.722;2022-11-20T10:49:41;26.77;;;17.30;;
14554;SDS011;7364;50.870;4.722;2022-11-20T10:52:11;26.47;;;15.50;;
14554;SDS011;7364;50.870;4.722;2022-11-20T10:54:49;25.70;;;16.27;;
14554;SDS011;7364;50.870;4.722;2022-11-20T10:57:27;24.67;;;14.43;;
14554;SDS011;7364;50.870;4.722;2022-11-20T11:00:13;20.60;;;15.53;;
14554;SDS011;7364;50.870;4.722;2022-11-20T11:03:01;17.27;;;11.27;;
14554;SDS011;7364;50.870;4.722;2022-11-20T11:05:33;18.83;;;11.53;;
14554;SDS011;7364;50.870;4.722;2022-11-20T11:08:21;20.03;;;11.07;;
14554;SDS011;7364;50.870;4.722;2022-11-20T11:10:51;17.60;;;11.17;;
14554;SDS011;7364;50.870;4.722;2022-11-20T11:13:21;18.27;;;9.87;;
14554;SDS011;7364;50.870;4.722;2022-11-20T11:15:51;12.03;;;8.67;;
14554;SDS011;7364;50.870;4.722;2022-11-20T11:18:25;12.47;;;8.43;;
14554;SDS011;7364;50.870;4.722;2022-11-20T11:20:55;14.87;;;8.63;;
14554;SDS011;7364;50.870;4.722;2022-11-20T11:23:29;13.07;;;8.07;;
14554;SDS011;7364;50.870;4.722;2022-11-20T11:25:59;12.97;;;7.40;;
14554;SDS011;7364;50.870;4.722;2022-11-20T11:28:28;11.20;;;7.03;;
14554;SDS011;7364;50.870;4.722;2022-11-20T11:30:59;13.17;;;7.00;;
14554;SDS011;7364;50.870;4.722;2022-11-20T11:33:28;9.77;;;5.60;;
14554;SDS011;7364;50.870;4.722;2022-11-20T11:35:57;13.57;;;6.97;;
14554;SDS011;7364;50.870;4.722;2022-11-20T11:38:30;9.37;;;6.03;;
14554;SDS011;7364;50.870;4.722;2022-11-20T11:41:02;8.93;;;5.03;;
14554;SDS011;7364;50.870;4.722;2022-11-20T11:43:31;10.27;;;5.27;;
14554;SDS011;7364;50.870;4.722;2022-11-20T11:46:27;8.13;;;4.50;;
14554;SDS011;7364;50.870;4.722;2022-11-20T11:48:57;8.63;;;4.73;;
14554;SDS011;7364;50.870;4.722;2022-11-20T11:51:29;7.93;;;4.73;;
14554;SDS011;7364;50.870;4.722;2022-11-20T11:54:02;6.23;;;3.77;;
14554;SDS011;7364;50.870;4.722;2022-11-20T11:56:41;6.90;;;3.93;;
14554;SDS011;7364;50.870;4.722;2022-11-20T11:59:12;5.80;;;3.13;;
14554;SDS011;7364;50.870;4.722;2022-11-20T12:01:52;7.00;;;3.17;;
14554;SDS011;7364;50.870;4.722;2022-11-20T12:04:29;9.53;;;3.43;;
14554;SDS011;7364;50.870;4.722;2022-11-20T12:07:09;8.17;;;3.30;;
14554;SDS011;7364;50.870;4.722;2022-11-20T12:09:42;7.83;;;3.27;;
14554;SDS011;7364;50.870;4.722;2022-11-20T12:12:15;9.13;;;3.20;;
14554;SDS011;7364;50.870;4.722;2022-11-20T12:14:47;6.17;;;2.47;;
14554;SDS011;7364;50.870;4.722;2022-11-20T12:17:19;9.23;;;2.77;;
14554;SDS011;7364;50.870;4.722;2022-11-20T12:19:46;5.33;;;2.17;;
14554;SDS011;7364;50.870;4.722;2022-11-20T12:22:17;4.63;;;2.77;;
14554;SDS011;7364;50.870;4.722;2022-11-20T12:24:56;5.17;;;2.73;;
14554;SDS011;7364;50.870;4.722;2022-11-20T12:27:39;5.87;;;2.77;;
14554;SDS011;7364;50.870;4.722;2022-11-20T12:30:23;7.17;;;2.60;;
14554;SDS011;7364;50.870;4.722;2022-11-20T12:32:59;6.00;;;2.33;;
14554;SDS011;7364;50.870;4.722;2022-11-20T12:35:42;6.10;;;2.63;;
14554;SDS011;7364;50.870;4.722;2022-11-20T12:38:29;7.80;;;2.37;;
14554;SDS011;7364;50.870;4.722;2022-11-20T12:41:13;7.67;;;2.67;;
14554;SDS011;7364;50.870;4.722;2022-11-20T12:44:02;11.70;;;2.57;;
14554;SDS011;7364;50.870;4.722;2022-11-20T12:47:03;9.60;;;3.00;;
14554;SDS011;7364;50.870;4.722;2022-11-20T12:49:37;6.57;;;2.90;;
14554;SDS011;7364;50.870;4.722;2022-11-20T12:52:15;4.70;;;2.27;;
14554;SDS011;7364;50.870;4.722;2022-11-20T12:57:58;10.07;;;3.53;;
14554;SDS011;7364;50.870;4.722;2022-11-20T13:00:31;8.03;;;3.17;;
14554;SDS011;7364;50.870;4.722;2022-11-20T13:06:14;4.90;;;3.10;;
14554;SDS011;7364;50.870;4.722;2022-11-20T13:08:43;6.87;;;3.00;;
14554;SDS011;7364;50.870;4.722;2022-11-20T13:11:18;7.17;;;2.70;;
14554;SDS011;7364;50.870;4.722;2022-11-20T13:13:58;4.20;;;2.70;;
14554;SDS011;7364;50.870;4.722;2022-11-20T13:16:50;7.40;;;3.23;;
14554;SDS011;7364;50.870;4.722;2022-11-20T13:19:22;9.77;;;3.20;;
14554;SDS011;7364;50.870;4.722;2022-11-20T13:21:53;4.63;;;3.13;;
14554;SDS011;7364;50.870;4.722;2022-11-20T13:24:24;6.97;;;3.27;;
14554;SDS011;7364;50.870;4.722;2022-11-20T13:26:59;5.13;;;3.23;;
14554;SDS011;7364;50.870;4.722;2022-11-20T13:29:29;10.20;;;3.87;;
14554;SDS011;7364;50.870;4.722;2022-11-20T13:32:06;9.90;;;5.07;;
14554;SDS011;7364;50.870;4.722;2022-11-20T13:34:51;8.77;;;4.13;;
14554;SDS011;7364;50.870;4.722;2022-11-20T13:37:29;6.03;;;4.10;;
14554;SDS011;7364;50.870;4.722;2022-11-20T13:42:54;6.93;;;4.37;;
14554;SDS011;7364;50.870;4.722;2022-11-20T13:45:28;7.17;;;3.80;;
14554;SDS011;7364;50.870;4.722;2022-11-20T13:48:00;5.90;;;3.37;;
14554;SDS011;7364;50.870;4.722;2022-11-20T13:50:40;5.70;;;3.33;;
14554;SDS011;7364;50.870;4.722;2022-11-20T13:53:22;7.73;;;3.00;;
14554;SDS011;7364;50.870;4.722;2022-11-20T13:56:03;7.50;;;3.17;;
14554;SDS011;7364;50.870;4.722;2022-11-20T13:58:40;8.67;;;3.83;;
14554;SDS011;7364;50.870;4.722;2022-11-20T14:01:17;5.97;;;3.80;;
14554;SDS011;7364;50.870;4.722;2022-11-20T14:03:47;2.87;;;2.23;;
14554;SDS011;7364;50.870;4.722;2022-11-20T14:06:20;7.03;;;3.13;;
14554;SDS011;7364;50.870;4.722;2022-11-20T14:08:55;3.77;;;2.60;;
14554;SDS011;7364;50.870;4.722;2022-11-20T14:11:23;4.73;;;2.77;;
14554;SDS011;7364;50.870;4.722;2022-11-20T14:13:54;4.00;;;2.70;;
14554;SDS011;7364;50.870;4.722;2022-11-20T14:16:24;6.33;;;3.23;;
14554;SDS011;7364;50.870;4.722;2022-11-20T14:18:53;5.20;;;3.10;;
14554;SDS011;7364;50.870;4.722;2022-11-20T14:21:22;4.93;;;2.93;;
14554;SDS011;7364;50.870;4.722;2022-11-20T14:23:52;6.97;;;3.10;;
14554;SDS011;7364;50.870;4.722;2022-11-20T14:26:30;4.27;;;2.63;;
14554;SDS011;7364;50.870;4.722;2022-11-20T14:29:01;3.13;;;2.33;;
14554;SDS011;7364;50.870;4.722;2022-11-20T14:31:28;6.60;;;2.80;;
14554;SDS011;7364;50.870;4.722;2022-11-20T14:33:57;3.97;;;2.73;;
14554;SDS011;7364;50.870;4.722;2022-11-20T14:36:24;5.53;;;2.70;;
14554;SDS011;7364;50.870;4.722;2022-11-20T14:38:52;4.33;;;2.70;;
14554;SDS011;7364;50.870;4.722;2022-11-20T14:41:22;4.43;;;2.50;;
14554;SDS011;7364;50.870;4.722;2022-11-20T14:43:51;3.30;;;2.37;;
14554;SDS011;7364;50.870;4.722;2022-11-20T14:46:21;4.03;;;2.20;;
14554;SDS011;7364;50.870;4.722;2022-11-20T14:48:49;3.50;;;1.83;;
14554;SDS011;7364;50.870;4.722;2022-11-20T14:51:30;4.73;;;2.23;;
14554;SDS011;7364;50.870;4.722;2022-11-20T14:54:14;3.03;;;2.23;;
14554;SDS011;7364;50.870;4.722;2022-11-20T14:56:42;5.10;;;2.00;;
14554;SDS011;7364;50.870;4.722;2022-11-20T14:59:22;5.50;;;2.30;;
14554;SDS011;7364;50.870;4.722;2022-11-20T15:01:55;3.50;;;1.90;;
14554;SDS011;7364;50.870;4.722;2022-11-20T15:04:24;3.73;;;2.27;;
14554;SDS011;7364;50.870;4.722;2022-11-20T15:06:53;3.20;;;2.03;;
14554;SDS011;7364;50.870;4.722;2022-11-20T15:09:23;2.37;;;1.90;;
14554;SDS011;7364;50.870;4.722;2022-11-20T15:11:52;4.00;;;2.27;;
14554;SDS011;7364;50.870;4.722;2022-11-20T15:14:22;3.67;;;2.33;;